Time;durP1;ratioP1;P1;durP2;ratioP2;P2;SDS_P1;SDS_P2;PMS_P1;PMS_P2;Temp;Humidity;BMP_temperature;BMP_pressure;BME280_temperature;BME280_humidity;BME280_pressure;Samples;Min_cycle;Max_cycle;Signal;HPM_P1;HPM_P2
2022/12/11 00:01:32;;;;;;;2.75;2.65;;;;;;;0.75;90.81;94547.12;4358844;32;20197;-58
2022/12/11 00:03:59;;;;;;;5.05;4.55;;;;;;;0.67;91.13;94558.81;4357957;32;20223;-57
2022/12/11 00:06:24;;;;;;;3.22;2.97;;;;;;;0.74;90.62;94550.78;4343793;32;20180;-57
2022/12/11 00:08:53;;;;;;;4.50;4.30;;;;;;;0.75;89.65;94557.56;4360953;32;20195;-57
2022/12/11 00:11:21;;;;;;;2.47;2.37;;;;;;;0.79;90.38;94556.03;4350796;32;20188;-57
2022/12/11 00:13:48;;;;;;;3.78;3.58;;;;;;;0.61;91.13;94559.84;4353991;32;20193;-59
2022/12/11 00:16:17;;;;;;;2.83;2.42;;;;;;;0.72;91.00;94559.91;4360572;32;20199;-59
2022/12/11 00:18:47;;;;;;;3.00;2.90;;;;;;;0.53;91.44;94564.72;4366290;32;20243;-58
2022/12/11 00:21:15;;;;;;;3.80;3.65;;;;;;;0.61;90.92;94562.44;4374399;32;20195;-58
2022/12/11 00:23:41;;;;;;;3.15;3.05;;;;;;;0.60;91.04;94560.88;4380414;32;20189;-58
2022/12/11 00:26:13;;;;;;;3.85;3.65;;;;;;;0.74;90.23;94568.25;4351531;32;20201;-58
2022/12/11 00:28:40;;;;;;;4.68;3.87;;;;;;;0.74;89.66;94560.44;4366041;32;20207;-57
2022/12/11 00:31:08;;;;;;;4.30;4.05;;;;;;;0.67;90.56;94561.44;4355401;32;20264;-58
2022/12/11 00:33:35;;;;;;;3.10;3.00;;;;;;;0.64;90.46;94556.69;4340657;32;20272;-58
2022/12/11 00:36:03;;;;;;;6.28;5.78;;;;;;;0.49;90.98;94554.00;4354358;32;20200;-57
2022/12/11 00:38:29;;;;;;;3.43;3.23;;;;;;;0.72;89.55;94555.47;4363638;32;20217;-58
2022/12/11 00:40:59;;;;;;;6.12;5.65;;;;;;;0.74;89.08;94560.44;4373145;32;20316;-58
2022/12/11 00:43:26;;;;;;;2.97;2.87;;;;;;;0.58;90.28;94562.16;4345513;32;20172;-58
2022/12/11 00:45:51;;;;;;;3.72;3.50;;;;;;;0.46;90.45;94564.13;4374210;32;20220;-58
2022/12/11 00:48:20;;;;;;;3.67;3.53;;;;;;;0.55;89.80;94560.03;4351000;32;20188;-58
2022/12/11 00:50:49;;;;;;;2.97;2.87;;;;;;;0.67;89.57;94558.81;4342627;32;20185;-58
2022/12/11 00:53:15;;;;;;;3.22;2.97;;;;;;;0.82;89.33;94562.59;4347304;32;20195;-60
2022/12/11 00:55:43;;;;;;;5.77;5.03;;;;;;;0.64;89.50;94561.13;4374734;32;20189;-60
2022/12/11 00:58:11;;;;;;;4.40;2.85;;;;;;;0.59;88.94;94559.28;4378070;32;20181;-60
2022/12/11 01:00:39;;;;;;;2.43;2.33;;;;;;;0.64;89.14;94556.69;4362284;32;20287;-60
2022/12/11 01:03:06;;;;;;;3.72;3.50;;;;;;;0.55;88.85;94563.44;4369296;32;20295;-59
2022/12/11 01:05:33;;;;;;;2.42;2.33;;;;;;;0.55;89.03;94560.81;4352354;32;20268;-60
2022/12/11 01:08:01;;;;;;;3.85;3.40;;;;;;;0.53;89.72;94564.72;4333609;32;20181;-60
2022/12/11 01:10:28;;;;;;;3.55;3.35;;;;;;;0.43;89.78;94569.84;4360625;32;20193;-59
2022/12/11 01:13:04;;;;;;;3.45;3.17;;;;;;;0.62;88.71;94574.44;4354208;32;20185;-60
2022/12/11 01:15:34;;;;;;;4.07;3.77;;;;;;;0.64;88.13;94577.56;4376092;32;20173;-60
2022/12/11 01:17:59;;;;;;;2.45;2.35;;;;;;;0.48;88.43;94578.50;4361613;32;20321;-59
2022/12/11 01:20:28;;;;;;;4.03;3.83;;;;;;;0.50;88.35;94580.84;4374643;32;20274;-60
2022/12/11 01:22:55;;;;;;;2.30;2.30;;;;;;;0.47;88.91;94586.56;4369049;32;20185;-60
2022/12/11 01:25:26;;;;;;;3.72;3.60;;;;;;;0.46;89.10;94585.78;4360301;32;20234;-60
2022/12/11 01:27:56;;;;;;;3.35;3.15;;;;;;;0.47;89.36;94592.56;4344000;32;20193;-60
2022/12/11 01:30:24;;;;;;;3.40;3.30;;;;;;;0.47;89.40;94586.56;4356896;32;20229;-60
2022/12/11 01:32:51;;;;;;;3.92;3.45;;;;;;;0.55;89.01;94586.91;4357236;32;20189;-60
2022/12/11 01:35:18;;;;;;;3.33;2.97;;;;;;;0.24;89.75;94598.09;4357669;32;20192;-60
2022/12/11 01:37:44;;;;;;;2.35;2.22;;;;;;;0.20;90.05;94602.25;4372834;32;20271;-65
2022/12/11 01:40:15;;;;;;;2.65;2.60;;;;;;;0.65;89.10;94604.47;4351568;32;20189;-60
2022/12/11 01:42:42;;;;;;;2.53;2.42;;;;;;;0.59;88.36;94605.47;4365599;32;20193;-60
2022/12/11 01:45:32;;;;;;;3.05;2.95;;;;;;;0.43;88.73;94607.13;4350884;32;20244;-60
2022/12/11 01:48:26;;;;;;;3.03;2.75;;;;;;;0.59;88.54;94605.47;4342738;32;20189;-59
2022/12/11 01:51:16;;;;;;;3.33;3.12;;;;;;;0.80;88.07;94602.00;4356339;32;20233;-60
2022/12/11 01:53:57;;;;;;;2.22;2.12;;;;;;;0.68;88.36;94602.16;4334734;32;20204;-60
2022/12/11 01:56:24;;;;;;;2.33;2.12;;;;;;;0.66;88.25;94606.81;4339888;32;20250;-60
2022/12/11 01:58:54;;;;;;;3.17;2.97;;;;;;;0.43;89.27;94614.97;4367808;32;20228;-60
2022/12/11 02:01:29;;;;;;;2.65;2.47;;;;;;;0.37;89.07;94618.59;4356755;32;20219;-60
2022/12/11 02:03:59;;;;;;;2.47;2.37;;;;;;;0.19;89.84;94613.72;4392677;32;20239;-60
2022/12/11 02:06:39;;;;;;;4.43;3.95;;;;;;;0.12;90.35;94613.13;4339407;32;20196;-60
2022/12/11 02:09:09;;;;;;;2.95;2.75;;;;;;;0.52;89.33;94605.66;4351638;32;20185;-60
2022/12/11 02:12:01;;;;;;;4.20;2.30;;;;;;;0.53;89.04;94607.25;4358545;32;20210;-59
2022/12/11 02:15:00;;;;;;;2.50;2.40;;;;;;;0.55;89.27;94605.19;4349712;32;20330;-59
2022/12/11 02:17:45;;;;;;;2.80;2.25;;;;;;;0.49;89.66;94600.16;4367166;32;20181;-59
2022/12/11 02:21:05;;;;;;;1.73;1.73;;;;;;;0.47;89.57;94597.00;4357923;32;20261;-60
2022/12/11 02:24:12;;;;;;;5.43;2.15;;;;;;;0.47;89.12;94587.34;4273659;33;20217;-60
2022/12/11 02:27:05;;;;;;;3.05;2.85;;;;;;;0.61;88.94;94583.31;4321734;33;20190;-60
2022/12/11 02:30:06;;;;;;;2.75;2.65;;;;;;;0.56;88.74;94591.09;4292934;33;20231;-60
2022/12/11 02:32:57;;;;;;;1.80;1.80;;;;;;;0.42;88.68;94587.31;4270917;33;20186;-60
2022/12/11 02:35:40;;;;;;;2.47;2.37;;;;;;;0.48;88.27;94590.75;4276493;33;20202;-60
2022/12/11 02:38:19;;;;;;;2.87;2.70;;;;;;;0.48;88.45;94588.16;4259286;33;20198;-60
2022/12/11 02:40:48;;;;;;;2.20;2.10;;;;;;;0.36;89.44;94583.09;4283281;33;20182;-60
2022/12/11 02:43:20;;;;;;;3.95;1.77;;;;;;;0.56;89.07;94588.50;4367814;32;20190;-64
2022/12/11 02:45:49;;;;;;;2.00;1.95;;;;;;;0.69;88.89;94582.84;4374152;32;20204;-60
2022/12/11 02:48:16;;;;;;;2.03;1.97;;;;;;;0.50;88.88;94586.06;4381511;32;20200;-59
2022/12/11 02:50:46;;;;;;;2.55;2.35;;;;;;;0.42;89.94;94589.13;4367131;32;20348;-60
2022/12/11 02:53:27;;;;;;;2.55;2.35;;;;;;;0.61;88.50;94583.31;4369624;32;20208;-59
2022/12/11 02:56:00;;;;;;;2.03;2.03;;;;;;;0.63;87.98;94594.28;4353510;32;20220;-60
2022/12/11 02:58:31;;;;;;;3.67;3.47;;;;;;;0.65;87.92;94589.59;4336081;32;20194;-60
2022/12/11 03:00:57;;;;;;;1.58;1.52;;;;;;;0.49;88.05;94597.53;4381439;32;20211;-59
2022/12/11 03:03:25;;;;;;;2.72;2.62;;;;;;;0.43;88.51;94596.72;4358792;32;20201;-60
2022/12/11 03:05:52;;;;;;;3.05;2.83;;;;;;;0.54;87.43;94598.38;4358081;32;20182;-60
2022/12/11 03:08:19;;;;;;;2.62;2.47;;;;;;;0.58;87.77;94591.63;4367813;32;20204;-60
2022/12/11 03:10:46;;;;;;;3.15;2.95;;;;;;;0.48;88.64;94599.38;4346116;32;20262;-60
2022/12/11 03:13:17;;;;;;;1.98;1.98;;;;;;;0.31;88.37;94604.69;4351557;32;20224;-60
2022/12/11 03:16:10;;;;;;;6.18;2.92;;;;;;;0.27;88.47;94598.41;4320047;32;20193;-59
2022/12/11 03:18:48;;;;;;;1.65;1.37;;;;;;;0.31;88.50;94598.69;4371828;32;20178;-60
2022/12/11 03:21:26;;;;;;;3.00;2.80;;;;;;;0.16;88.14;94603.78;4349196;32;20180;-64
2022/12/11 03:24:07;;;;;;;2.22;2.03;;;;;;;0.36;87.97;94606.56;4363690;32;20305;-60
2022/12/11 03:26:43;;;;;;;2.03;1.92;;;;;;;0.14;87.84;94608.44;4364047;32;20184;-60
2022/12/11 03:29:18;;;;;;;1.33;1.33;;;;;;;0.10;87.94;94608.16;4322328;32;20193;-60
2022/12/11 03:31:52;;;;;;;2.20;2.03;;;;;;;0.34;88.12;94606.03;4378402;32;20269;-61
2022/12/11 03:34:26;;;;;;;1.92;1.83;;;;;;;0.54;86.39;94603.59;4361839;32;20184;-59
2022/12/11 03:36:57;;;;;;;2.80;2.58;;;;;;;0.52;85.62;94612.72;4363794;32;20199;-60
2022/12/11 03:39:31;;;;;;;1.50;1.42;;;;;;;0.44;86.43;94616.53;4352331;32;20200;-59
2022/12/11 03:42:04;;;;;;;3.10;2.90;;;;;;;0.08;86.91;94610.22;4385847;32;20274;-60
2022/12/11 03:44:45;;;;;;;2.92;2.72;;;;;;;0.48;86.48;94614.22;4369790;32;20187;-59
2022/12/11 03:47:17;;;;;;;0.40;0.40;;;;;;;0.29;85.84;94619.81;4368528;32;20181;-60
2022/12/11 03:49:54;;;;;;;2.37;2.28;;;;;;;0.48;85.73;94609.81;4337487;32;20226;-60
2022/12/11 03:52:25;;;;;;;1.73;1.73;;;;;;;0.49;86.41;94614.00;4344540;32;20180;-60
2022/12/11 03:55:06;;;;;;;2.58;2.40;;;;;;;0.44;86.39;94613.16;4368870;32;20201;-59
2022/12/11 03:57:36;;;;;;;1.55;1.55;;;;;;;0.46;85.86;94622.31;4374523;32;20218;-60
2022/12/11 04:00:23;;;;;;;2.72;2.62;;;;;;;0.40;86.32;94618.09;4375814;32;20188;-60
2022/12/11 04:03:14;;;;;;;3.45;3.25;;;;;;;0.42;86.08;94616.00;4369355;32;20195;-59
2022/12/11 04:05:50;;;;;;;1.20;1.10;;;;;;;0.37;85.89;94613.37;4374472;32;20185;-59
2022/12/11 04:08:26;;;;;;;2.35;2.25;;;;;;;0.40;84.50;94618.09;4335987;32;20299;-61
2022/12/11 04:11:33;;;;;;;2.58;2.47;;;;;;;0.46;84.85;94606.66;4341925;32;20196;-60
2022/12/11 04:13:40;;;;;;;2.65;2.47;;;;;;;0.48;85.04;94601.97;4337066;32;20232;-60
2022/12/11 04:16:08;;;;;;;3.33;3.12;;;;;;;0.48;85.25;94609.81;4325737;32;20177;-60
2022/12/11 04:24:15;;;;;;;1.92;1.83;;;;;;;0.33;85.02;94604.47;4362266;32;20305;-60
2022/12/11 04:26:47;;;;;;;2.08;1.98;;;;;;;0.35;85.06;94607.59;4326163;32;20261;-60
2022/12/11 04:29:15;;;;;;;2.33;2.33;;;;;;;0.43;84.63;94608.97;4364326;32;20181;-59
2022/12/11 04:31:42;;;;;;;2.47;2.37;;;;;;;0.50;84.09;94607.75;4326338;32;20182;-60
2022/12/11 04:34:08;;;;;;;1.40;1.40;;;;;;;0.36;84.41;94611.00;4354127;32;20180;-60
2022/12/11 04:36:35;;;;;;;2.27;2.17;;;;;;;0.45;84.18;94609.50;4367252;32;22697;-60
2022/12/11 04:39:04;;;;;;;1.70;1.67;;;;;;;0.43;84.55;94607.13;4373822;32;20286;-60
2022/12/11 04:41:30;;;;;;;1.42;1.33;;;;;;;0.07;84.75;94608.62;4360525;32;20188;-59
2022/12/11 04:43:57;;;;;;;1.30;1.30;;;;;;;0.10;84.53;94610.75;4344782;32;20185;-60
2022/12/11 04:46:30;;;;;;;1.83;1.17;;;;;;;0.31;84.40;94619.56;4372279;32;20207;-60
2022/12/11 04:48:56;;;;;;;1.77;1.05;;;;;;;0.59;83.31;94616.69;4366759;32;20286;-59
2022/12/11 04:51:23;;;;;;;1.47;1.47;;;;;;;0.22;83.80;94608.78;4362895;32;20188;-60
2022/12/11 04:53:50;;;;;;;1.98;1.87;;;;;;;0.28;82.95;94609.63;4373936;32;20307;-60
2022/12/11 04:56:15;;;;;;;1.90;1.90;;;;;;;0.35;83.03;94615.44;4374258;32;20173;-60
2022/12/11 04:58:44;;;;;;;1.07;1.07;;;;;;;0.28;83.02;94614.84;4386944;32;20227;-60
2022/12/11 05:01:17;;;;;;;1.45;1.45;;;;;;;0.39;82.23;94605.31;4366220;32;20177;-59
2022/12/11 05:03:44;;;;;;;1.20;1.20;;;;;;;0.46;81.88;94606.66;4364063;32;20176;-60
2022/12/11 05:06:35;;;;;;;2.67;2.47;;;;;;;0.36;81.29;94601.34;4366765;32;20209;-60
2022/12/11 05:09:02;;;;;;;1.27;1.17;;;;;;;0.19;81.33;94603.28;4358759;32;20184;-60
2022/12/11 05:11:28;;;;;;;1.77;1.67;;;;;;;0.39;80.60;94602.69;4365580;32;20190;-60
2022/12/11 05:13:54;;;;;;;1.90;1.80;;;;;;;0.25;80.37;94599.69;4349643;32;20210;-60
2022/12/11 05:16:20;;;;;;;1.60;1.50;;;;;;;0.47;79.69;94592.56;4365460;32;20263;-60
2022/12/11 05:18:46;;;;;;;2.37;2.27;;;;;;;0.27;80.94;94601.00;4369161;32;20204;-60
2022/12/11 05:21:23;;;;;;;2.08;2.00;;;;;;;0.33;81.70;94592.19;4357717;32;20238;-60
2022/12/11 05:23:48;;;;;;;1.25;1.25;;;;;;;0.27;82.98;94589.78;4337290;32;20188;-59
2022/12/11 05:26:17;;;;;;;2.53;2.43;;;;;;;0.39;82.31;94593.03;4365923;32;20191;-64
2022/12/11 05:28:44;;;;;;;1.92;1.83;;;;;;;0.48;81.30;94599.38;4371876;32;20193;-60
2022/12/11 05:31:20;;;;;;;1.55;1.55;;;;;;;0.31;82.69;94598.69;4333974;32;20182;-59
2022/12/11 05:33:48;;;;;;;1.37;1.37;;;;;;;0.40;82.10;94589.41;4324388;32;20248;-60
2022/12/11 05:36:22;;;;;;;2.25;2.05;;;;;;;0.37;82.46;94587.28;4322402;32;20203;-63
2022/12/11 05:38:50;;;;;;;1.95;1.85;;;;;;;0.30;81.56;94592.69;4349544;32;20201;-60
2022/12/11 05:41:18;;;;;;;1.23;1.20;;;;;;;0.47;80.36;94595.19;4370427;32;20238;-58
2022/12/11 05:44:06;;;;;;;2.20;2.12;;;;;;;0.44;79.13;94587.84;4341769;32;20190;-58
2022/12/11 05:46:34;;;;;;;2.12;2.03;;;;;;;0.49;78.98;94593.12;4365408;32;20261;-57
2022/12/11 05:49:01;;;;;;;2.33;2.22;;;;;;;0.50;77.40;94599.91;4361825;32;20315;-58
2022/12/11 05:51:28;;;;;;;0.90;0.90;;;;;;;0.24;78.53;94598.09;4363370;32;20196;-58
2022/12/11 05:53:56;;;;;;;1.80;1.70;;;;;;;0.33;77.31;94592.19;4360560;32;20204;-58
2022/12/11 05:56:32;;;;;;;3.22;1.62;;;;;;;0.41;77.77;94603.22;4357253;32;20177;-58
2022/12/11 05:59:05;;;;;;;1.52;1.52;;;;;;;0.42;77.87;94600.34;4353487;32;20204;-58
2022/12/11 06:01:41;;;;;;;1.25;1.25;;;;;;;0.27;77.96;94589.78;4366315;32;20246;-58
2022/12/11 06:04:12;;;;;;;1.47;1.47;;;;;;;0.43;76.74;94595.91;4339534;32;20260;-58
2022/12/11 06:06:39;;;;;;;1.23;1.23;;;;;;;0.25;76.45;94599.69;4367479;32;20284;-58
2022/12/11 06:09:05;;;;;;;1.08;1.08;;;;;;;0.23;76.89;94597.31;4373216;32;20253;-58
2022/12/11 06:11:35;;;;;;;1.73;1.62;;;;;;;0.22;77.26;94594.94;4365784;32;20211;-58
2022/12/11 06:14:03;;;;;;;1.65;1.62;;;;;;;0.23;77.59;94592.09;4350178;32;20204;-58
2022/12/11 06:16:30;;;;;;;2.00;1.90;;;;;;;0.26;78.91;94589.00;4351290;32;20223;-57
2022/12/11 06:18:57;;;;;;;2.37;2.27;;;;;;;0.36;79.00;94588.31;4364129;32;20199;-57
2022/12/11 06:21:27;;;;;;;1.27;1.27;;;;;;;0.27;78.21;94581.97;4337984;32;20284;-58
2022/12/11 06:23:57;;;;;;;1.40;1.27;;;;;;;0.47;77.76;94583.97;4342105;32;20196;-58
2022/12/11 06:26:24;;;;;;;1.52;1.52;;;;;;;0.47;77.64;94584.75;4339398;32;20193;-57
2022/12/11 06:28:52;;;;;;;2.40;1.45;;;;;;;0.43;77.98;94591.50;4366800;32;20224;-58
2022/12/11 06:31:19;;;;;;;1.27;1.27;;;;;;;0.34;77.90;94582.56;4369965;32;20260;-61
2022/12/11 06:33:50;;;;;;;1.50;1.40;;;;;;;0.20;78.99;94591.81;4379114;32;20232;-62
2022/12/11 06:36:24;;;;;;;1.00;1.00;;;;;;;0.40;77.80;94591.22;4342357;32;20205;-58
2022/12/11 06:38:50;;;;;;;1.73;1.73;;;;;;;0.21;79.17;94593.38;4355219;32;20352;-58
2022/12/11 06:41:17;;;;;;;1.63;1.53;;;;;;;0.29;77.89;94593.72;4369815;32;20184;-62
2022/12/11 06:43:44;;;;;;;1.08;1.08;;;;;;;0.41;79.00;94590.97;4370535;32;20193;-58
2022/12/11 06:46:30;;;;;;;2.60;2.40;;;;;;;0.14;79.79;94587.59;4368523;32;20197;-58
2022/12/11 06:48:57;;;;;;;1.58;1.58;;;;;;;0.42;79.84;94581.31;4369207;32;20211;-58
2022/12/11 06:51:23;;;;;;;2.37;2.28;;;;;;;0.22;80.67;94590.53;4365125;32;20185;-58
2022/12/11 06:53:55;;;;;;;1.65;1.30;;;;;;;0.18;81.72;94589.47;4373091;32;20197;-58
2022/12/11 06:56:24;;;;;;;5.12;2.03;;;;;;;0.21;81.60;94586.34;4365717;32;20193;-58
2022/12/11 06:58:50;;;;;;;3.28;3.17;;;;;;;0.21;82.56;94582.94;4357525;32;20190;-57
2022/12/11 07:01:23;;;;;;;2.05;1.95;;;;;;;0.32;81.70;94590.63;4370894;32;20204;-58
2022/12/11 07:03:51;;;;;;;1.17;1.17;;;;;;;0.33;82.40;94580.97;4350362;32;20188;-58
2022/12/11 07:06:18;;;;;;;0.98;0.98;;;;;;;0.33;82.70;94589.59;4330439;32;20249;-59
2022/12/11 07:08:49;;;;;;;2.05;1.92;;;;;;;0.34;82.94;94583.34;4342903;32;20176;-58
2022/12/11 07:11:28;;;;;;;1.45;1.45;;;;;;;0.30;82.72;94587.47;4363267;32;20189;-59
2022/12/11 07:14:05;;;;;;;3.45;2.95;;;;;;;0.08;83.90;94589.34;4383290;32;20203;-58
2022/12/11 07:16:31;;;;;;;1.92;1.92;;;;;;;0.17;84.23;94589.72;4388907;32;20232;-58
2022/12/11 07:18:58;;;;;;;2.12;1.87;;;;;;;0.12;83.45;94594.88;4348747;32;20177;-57
2022/12/11 07:21:25;;;;;;;1.00;1.00;;;;;;;0.04;84.65;94598.69;4382161;32;20186;-57
2022/12/11 07:23:51;;;;;;;1.65;1.65;;;;;;;0.22;83.58;94600.16;4362725;32;20224;-57
2022/12/11 07:26:21;;;;;;;1.58;1.58;;;;;;;0.04;83.67;94603.13;4364019;32;20190;-62
2022/12/11 07:28:46;;;;;;;2.87;2.67;;;;;;;0.16;84.57;94601.97;4348018;32;20184;-58
2022/12/11 07:31:15;;;;;;;2.43;2.07;;;;;;;0.19;83.92;94605.91;4368784;32;20189;-58
2022/12/11 07:33:46;;;;;;;3.42;3.30;;;;;;;0.12;84.75;94613.13;4355622;32;20189;-57
2022/12/11 07:36:15;;;;;;;2.67;2.00;;;;;;;0.33;84.23;94609.66;4365278;32;20199;-57
2022/12/11 07:38:40;;;;;;;2.20;2.10;;;;;;;0.31;83.90;94609.12;4339507;32;20235;-57
2022/12/11 07:41:09;;;;;;;2.87;2.40;;;;;;;0.34;84.19;94609.44;4391308;32;20195;-58
2022/12/11 07:43:36;;;;;;;2.10;2.03;;;;;;;0.18;84.71;94617.34;4384345;32;20345;-58
2022/12/11 07:46:10;;;;;;;1.70;1.70;;;;;;;0.10;85.14;94618.56;4370432;32;20298;-58
2022/12/11 07:48:39;;;;;;;1.27;1.27;;;;;;;0.29;84.73;94613.81;4329802;32;20204;-58
2022/12/11 07:51:16;;;;;;;1.98;1.87;;;;;;;0.43;84.00;94612.34;4339297;32;20181;-58
2022/12/11 07:53:44;;;;;;;1.10;1.10;;;;;;;0.31;84.46;94602.09;4373298;32;20193;-58
2022/12/11 07:56:11;;;;;;;1.98;1.87;;;;;;;0.28;84.86;94607.00;4382790;32;20205;-58
2022/12/11 07:58:39;;;;;;;3.10;2.90;;;;;;;0.17;85.17;94608.75;4368384;32;20199;-57
2022/12/11 08:01:21;;;;;;;2.60;2.50;;;;;;;0.23;84.97;94612.97;4367297;32;20280;-57
2022/12/11 08:03:47;;;;;;;4.32;2.03;;;;;;;0.44;83.95;94603.50;4374612;32;20195;-59
2022/12/11 08:06:17;;;;;;;3.65;3.53;;;;;;;0.11;84.69;94612.31;4377418;32;20238;-58
2022/12/11 08:08:44;;;;;;;2.92;2.83;;;;;;;0.07;85.78;94628.69;4378940;32;20311;-58
2022/12/11 08:11:13;;;;;;;2.58;2.45;;;;;;;0.00;84.80;94616.62;4351920;32;20189;-58
2022/12/11 08:13:41;;;;;;;2.50;2.33;;;;;;;-0.04;85.85;94612.19;4359521;32;20302;-58
2022/12/11 08:16:11;;;;;;;2.17;2.08;;;;;;;0.08;86.04;94619.84;4339878;32;20220;-57
2022/12/11 08:18:38;;;;;;;2.95;2.85;;;;;;;0.24;85.70;94619.75;4375248;32;20395;-58
2022/12/11 08:21:23;;;;;;;2.90;2.72;;;;;;;0.20;85.05;94617.91;4368582;32;20203;-58
2022/12/11 08:24:02;;;;;;;2.08;1.98;;;;;;;0.09;85.05;94611.00;4345095;32;20189;-58
2022/12/11 08:26:30;;;;;;;1.50;1.45;;;;;;;0.16;84.76;94609.00;4380460;32;20211;-58
2022/12/11 08:28:59;;;;;;;2.10;1.60;;;;;;;0.39;83.88;94606.09;4374999;32;20189;-59
2022/12/11 08:31:27;;;;;;;1.83;1.75;;;;;;;0.24;83.35;94613.75;4362965;32;20298;-59
2022/12/11 08:34:02;;;;;;;1.95;1.85;;;;;;;0.29;83.65;94613.81;4381486;32;20216;-59
2022/12/11 08:36:32;;;;;;;2.33;2.22;;;;;;;0.50;83.02;94615.56;4357671;32;20188;-58
2022/12/11 08:38:59;;;;;;;2.40;1.52;;;;;;;0.55;82.50;94615.62;4365122;32;20189;-59
2022/12/11 08:41:29;;;;;;;3.37;2.73;;;;;;;0.51;82.53;94621.56;4357698;32;20196;-58
2022/12/11 08:44:00;;;;;;;2.47;2.30;;;;;;;0.71;81.80;94619.13;4333238;32;20294;-58
2022/12/11 08:46:32;;;;;;;2.37;2.27;;;;;;;0.67;81.17;94626.66;4365162;32;20280;-58
2022/12/11 08:48:59;;;;;;;1.75;1.75;;;;;;;0.53;80.88;94629.94;4340612;32;20350;-58
2022/12/11 08:51:28;;;;;;;2.30;2.20;;;;;;;0.50;81.81;94626.00;4319245;32;20205;-59
2022/12/11 08:54:00;;;;;;;2.65;2.35;;;;;;;0.62;81.68;94633.69;4356940;32;20287;-59
2022/12/11 08:56:28;;;;;;;3.50;3.25;;;;;;;0.86;80.69;94639.34;4375282;32;20215;-59
2022/12/11 08:58:54;;;;;;;3.25;3.15;;;;;;;1.01;80.64;94629.81;4345390;32;20185;-59
2022/12/11 09:01:24;;;;;;;1.98;1.87;;;;;;;0.92;80.46;94640.97;4386927;32;20230;-59
2022/12/11 09:03:52;;;;;;;2.50;2.25;;;;;;;1.01;79.94;94636.88;4353173;32;20196;-59
2022/12/11 09:06:20;;;;;;;1.27;1.27;;;;;;;0.91;79.74;94636.78;4283338;32;20190;-64
2022/12/11 09:08:47;;;;;;;2.20;2.10;;;;;;;0.58;80.58;94641.22;4369167;32;20260;-60
2022/12/11 09:11:21;;;;;;;1.37;1.37;;;;;;;0.26;82.08;94638.56;4364953;32;20267;-59
2022/12/11 09:13:46;;;;;;;3.08;2.92;;;;;;;0.22;81.98;94637.47;4339354;32;20189;-60
2022/12/11 09:16:21;;;;;;;2.37;1.50;;;;;;;0.32;82.19;94634.97;4371839;32;20220;-60
2022/12/11 09:19:00;;;;;;;1.67;1.67;;;;;;;0.32;81.85;94636.78;4331244;32;20180;-60
2022/12/11 09:21:28;;;;;;;1.33;1.33;;;;;;;0.24;80.76;94632.78;4366681;32;20197;-59
2022/12/11 09:24:00;;;;;;;1.67;1.67;;;;;;;0.23;81.39;94635.63;4351808;32;20300;-60
2022/12/11 09:26:27;;;;;;;2.17;1.98;;;;;;;0.11;81.96;94629.78;4368152;32;20197;-60
2022/12/11 09:28:54;;;;;;;1.95;1.95;;;;;;;0.26;80.65;94632.53;4368796;32;20180;-59
2022/12/11 09:31:39;;;;;;;2.77;2.57;;;;;;;0.05;80.95;94631.53;4353360;32;20280;-59
2022/12/11 09:34:27;;;;;;;1.40;1.40;;;;;;;0.09;80.77;94622.22;4357717;32;20180;-59
2022/12/11 09:36:53;;;;;;;2.12;2.03;;;;;;;0.30;80.09;94633.63;4360823;32;20226;-59
2022/12/11 09:39:23;;;;;;;1.37;1.27;;;;;;;0.29;79.45;94627.63;4378282;32;20235;-60
2022/12/11 09:42:15;;;;;;;1.30;1.17;;;;;;;0.30;78.60;94628.41;4360509;32;20193;-60
2022/12/11 09:44:46;;;;;;;1.77;1.58;;;;;;;0.43;79.35;94635.84;4381578;32;20260;-60
2022/12/11 09:47:27;;;;;;;2.15;2.05;;;;;;;0.20;79.56;94628.34;4371988;32;20196;-59
2022/12/11 09:50:04;;;;;;;1.55;1.45;;;;;;;0.20;79.75;94628.34;4343179;32;20230;-59
2022/12/11 09:52:53;;;;;;;1.70;1.60;;;;;;;0.36;77.86;94619.63;4368274;32;20219;-60
2022/12/11 09:55:24;;;;;;;1.05;1.05;;;;;;;0.30;78.96;94626.59;4369670;32;20264;-59
2022/12/11 09:58:09;;;;;;;1.50;1.40;;;;;;;0.14;79.73;94622.28;4372345;32;20181;-59
2022/12/11 10:00:55;;;;;;;0.45;0.45;;;;;;;0.09;79.80;94621.41;4381068;32;20201;-59
2022/12/11 10:04:13;;;;;;;0.77;0.77;;;;;;;0.15;79.02;94615.25;4359428;32;20236;-59
2022/12/11 10:07:18;;;;;;;0.50;0.50;;;;;;;-0.09;80.54;94612.13;4366178;32;20278;-59
2022/12/11 10:10:09;;;;;;;1.50;1.50;;;;;;;-0.09;79.53;94617.31;4365453;32;20211;-60
2022/12/11 10:12:54;;;;;;;1.23;1.23;;;;;;;-0.06;79.39;94604.59;4351722;32;20181;-60
2022/12/11 10:15:49;;;;;;;0.88;0.88;;;;;;;0.19;78.85;94608.50;4380896;32;20184;-60
2022/12/11 10:18:21;;;;;;;0.85;0.85;;;;;;;0.13;78.93;94602.44;4366027;32;20216;-60
2022/12/11 10:20:51;;;;;;;0.25;0.25;;;;;;;0.06;79.60;94595.84;4362592;32;20184;-60
2022/12/11 10:23:21;;;;;;;1.17;1.17;;;;;;;0.08;78.68;94594.56;4368548;32;20280;-59
2022/12/11 10:26:09;;;;;;;2.25;1.35;;;;;;;0.09;78.18;94590.13;4368530;32;20226;-60
2022/12/11 10:28:36;;;;;;;1.90;1.80;;;;;;;-0.19;78.51;94594.53;4357612;32;20204;-60
2022/12/11 10:31:04;;;;;;;1.05;1.05;;;;;;;-0.16;78.26;94586.22;4335041;32;20205;-60
2022/12/11 10:34:13;;;;;;;2.17;2.00;;;;;;;-0.16;78.72;94583.63;4371568;32;20185;-60
2022/12/11 10:36:40;;;;;;;1.80;1.70;;;;;;;0.19;77.44;94587.66;4320230;32;20272;-59
2022/12/11 10:39:20;;;;;;;0.68;0.68;;;;;;;0.10;78.44;94589.09;4353945;32;21384;-59
2022/12/11 10:41:50;;;;;;;1.15;1.15;;;;;;;0.08;77.95;94583.34;4344505;32;20212;-60
2022/12/11 10:44:21;;;;;;;2.53;1.15;;;;;;;-0.05;79.63;94585.31;4362097;32;20185;-59
2022/12/11 10:47:18;;;;;;;0.93;0.93;;;;;;;0.13;78.56;94584.19;4388005;32;20184;-61
2022/12/11 10:49:59;;;;;;;1.12;1.12;;;;;;;0.19;77.90;94582.44;4343578;32;20221;-60
2022/12/11 10:52:38;;;;;;;1.45;1.10;;;;;;;0.18;78.64;94579.03;4343797;32;20197;-59
2022/12/11 10:55:44;;;;;;;2.45;2.35;;;;;;;0.19;78.60;94569.41;4363639;32;20197;-60
2022/12/11 10:58:22;;;;;;;1.30;1.30;;;;;;;0.25;79.00;94573.59;4333462;32;20290;-60
2022/12/11 11:01:15;;;;;;;3.97;2.20;;;;;;;0.04;79.16;94569.22;4334412;32;20204;-59
2022/12/11 11:03:55;;;;;;;1.62;1.62;;;;;;;0.22;78.62;94563.66;4346875;32;20272;-60
2022/12/11 11:06:21;;;;;;;0.98;0.45;;;;;;;0.12;79.03;94561.75;4355776;32;20300;-60
2022/12/11 11:08:51;;;;;;;0.62;0.60;;;;;;;0.20;78.63;94556.09;4366591;32;20220;-61
2022/12/11 11:11:37;;;;;;;0.93;0.93;;;;;;;0.26;77.93;94554.31;4387555;32;20181;-60
2022/12/11 11:14:24;;;;;;;0.75;0.75;;;;;;;0.16;78.78;94554.25;4356580;32;20180;-59
2022/12/11 11:16:54;;;;;;;1.48;1.48;;;;;;;0.12;78.04;94546.13;4354325;32;20188;-59
2022/12/11 11:19:36;;;;;;;1.20;1.10;;;;;;;0.28;78.38;94549.63;4353703;32;20177;-59
2022/12/11 11:22:18;;;;;;;1.53;1.50;;;;;;;0.22;77.75;94537.59;4377048;32;20196;-60
2022/12/11 11:24:50;;;;;;;1.10;1.10;;;;;;;0.31;77.87;94536.09;4368828;32;20360;-60
2022/12/11 11:27:42;;;;;;;0.82;0.82;;;;;;;0.53;77.25;94523.75;4352844;32;20284;-60
2022/12/11 11:30:26;;;;;;;1.00;1.00;;;;;;;0.55;77.60;94519.09;4360371;32;20292;-60
2022/12/11 11:33:04;;;;;;;1.37;1.35;;;;;;;0.35;76.85;94518.94;4375396;32;20188;-60
2022/12/11 11:35:32;;;;;;;2.60;1.42;;;;;;;0.34;76.43;94515.53;4355744;32;20185;-60
2022/12/11 11:38:00;;;;;;;1.87;1.87;;;;;;;0.31;76.73;94520.47;4336433;32;20189;-60
2022/12/11 11:40:42;;;;;;;2.62;2.20;;;;;;;0.53;77.56;94515.94;4368943;32;20204;-60
2022/12/11 11:43:28;;;;;;;1.15;1.08;;;;;;;0.47;76.79;94516.94;4356339;32;20279;-60
2022/12/11 11:46:21;;;;;;;1.42;1.42;;;;;;;0.31;76.44;94504.81;4344413;32;20201;-60
2022/12/11 11:49:11;;;;;;;1.25;1.23;;;;;;;0.35;76.32;94505.87;4372973;32;20185;-60
2022/12/11 11:52:00;;;;;;;0.37;0.37;;;;;;;0.15;76.46;94509.12;4372811;32;20283;-59
2022/12/11 11:54:51;;;;;;;2.10;2.00;;;;;;;0.06;76.27;94509.81;4387814;32;20220;-60
2022/12/11 11:57:59;;;;;;;0.65;0.65;;;;;;;0.23;76.26;94510.47;4329138;32;20188;-61
2022/12/11 12:00:30;;;;;;;0.62;0.43;;;;;;;0.16;75.64;94504.69;4369763;32;20237;-60
2022/12/11 12:03:10;;;;;;;0.13;0.13;;;;;;;0.23;76.22;94507.88;4367956;32;20189;-59
2022/12/11 12:06:22;;;;;;;1.58;1.58;;;;;;;0.02;75.51;94506.91;4362704;32;20188;-60
2022/12/11 12:09:19;;;;;;;1.35;1.27;;;;;;;0.03;76.51;94507.69;4358449;32;20180;-59
2022/12/11 12:12:16;;;;;;;0.93;0.93;;;;;;;-0.04;76.25;94505.31;4355071;32;20185;-59
2022/12/11 12:15:18;;;;;;;0.45;0.45;;;;;;;0.13;76.74;94502.59;4372291;32;20188;-60
2022/12/11 12:18:24;;;;;;;1.65;1.58;;;;;;;-0.18;76.39;94502.28;4362481;32;20200;-64
2022/12/11 12:21:35;;;;;;;0.43;0.43;;;;;;;-0.09;75.89;94500.03;4364764;32;20185;-60